createdAt,value
2017-02-28T00:01:05.988Z,21.72
2017-02-28T00:02:20.447Z,21.77
2017-02-28T00:03:34.899Z,21.82
2017-02-28T00:04:49.376Z,21.72
2017-02-28T00:06:03.814Z,21.8
2017-02-28T00:07:18.276Z,21.83
2017-02-28T00:08:32.754Z,21.79
2017-02-28T00:09:47.233Z,21.72
2017-02-28T00:11:01.728Z,21.84
2017-02-28T00:12:16.192Z,21.96
2017-02-28T00:13:30.016Z,21.84
2017-02-28T00:14:43.907Z,21.92
2017-02-28T00:15:58.358Z,22
2017-02-28T00:17:12.815Z,22.06
2017-02-28T00:18:27.271Z,22.02
2017-02-28T00:19:41.729Z,22.02
2017-02-28T00:20:56.163Z,22.05
2017-02-28T00:22:10.609Z,22.09
2017-02-28T00:23:23.767Z,22.06
2017-02-28T00:24:37.594Z,22.1
2017-02-28T00:25:52.075Z,22.1
2017-02-28T00:27:06.530Z,22.02
2017-02-28T00:28:20.999Z,22
2017-02-28T00:29:35.487Z,22.02
2017-02-28T00:30:49.945Z,21.98
2017-02-28T00:32:04.399Z,22.03
2017-02-28T00:33:18.204Z,21.9
2017-02-28T00:34:32.676Z,21.83
2017-02-28T00:35:47.142Z,21.88
2017-02-28T00:37:01.616Z,21.71
2017-02-28T00:38:16.077Z,21.72
2017-02-28T00:39:29.924Z,21.72
2017-02-28T00:40:44.402Z,21.72
2017-02-28T00:41:58.856Z,21.58
2017-02-28T00:43:12.682Z,21.53
2017-02-28T00:44:27.165Z,21.59
2017-02-28T00:45:40.979Z,21.52
2017-02-28T00:46:55.430Z,21.54
2017-02-28T00:48:09.889Z,21.52
2017-02-28T00:49:24.345Z,21.52
2017-02-28T00:50:38.159Z,21.58
2017-02-28T00:51:52.603Z,21.44
2017-02-28T00:53:07.049Z,21.61
2017-02-28T00:54:21.537Z,21.64
2017-02-28T00:55:36.019Z,21.49
2017-02-28T00:56:50.513Z,21.49
2017-02-28T00:58:04.990Z,21.49
2017-02-28T00:59:19.431Z,21.52
2017-02-28T01:00:33.246Z,21.43
2017-02-28T01:01:47.681Z,21.37
2017-02-28T01:03:02.171Z,21.44
2017-02-28T01:04:16.635Z,21.42
2017-02-28T01:05:30.461Z,21.4
2017-02-28T01:06:44.922Z,21.38
2017-02-28T01:07:59.335Z,21.5
2017-02-28T01:09:13.141Z,21.52
2017-02-28T01:10:27.592Z,21.47
2017-02-28T01:11:42.016Z,21.46
2017-02-28T01:12:56.482Z,21.5
2017-02-28T01:14:10.937Z,21.49
2017-02-28T01:15:24.810Z,21.47
2017-02-28T01:16:39.339Z,21.46
2017-02-28T01:17:53.819Z,21.43
2017-02-28T01:19:08.330Z,21.49
2017-02-28T01:20:22.124Z,21.47
2017-02-28T01:21:36.567Z,21.47
2017-02-28T01:22:51.012Z,21.37
2017-02-28T01:24:05.475Z,21.42
2017-02-28T01:25:19.295Z,21.43
2017-02-28T01:26:33.097Z,21.43
2017-02-28T01:27:47.543Z,21.37
2017-02-28T01:29:02.009Z,21.44
2017-02-28T01:30:16.473Z,21.46
2017-02-28T01:31:30.900Z,21.46
2017-02-28T01:32:45.394Z,21.49
2017-02-28T01:33:59.217Z,21.53
2017-02-28T01:35:13.655Z,21.52
2017-02-28T01:36:28.110Z,21.46
2017-02-28T01:37:42.581Z,21.54
2017-02-28T01:38:57.044Z,21.49
2017-02-28T01:40:11.522Z,21.49
2017-02-28T01:41:25.312Z,21.5
2017-02-28T01:42:39.758Z,21.35
2017-02-28T01:43:54.255Z,21.31
2017-02-28T01:45:08.701Z,21.24
2017-02-28T01:46:22.537Z,21.27
2017-02-28T01:47:36.368Z,21.4
2017-02-28T01:48:50.886Z,21.42
2017-02-28T01:50:05.359Z,21.34
2017-02-28T01:51:19.183Z,21.24
2017-02-28T01:52:33.655Z,21.24
2017-02-28T01:53:48.156Z,21.27
2017-02-28T01:55:02.596Z,21.07
2017-02-28T01:56:17.085Z,21.07
2017-02-28T01:57:31.540Z,21.22
2017-02-28T01:58:46.019Z,21.12
2017-02-28T02:00:00.488Z,21.14
2017-02-28T02:01:14.965Z,21.13
2017-02-28T02:02:28.811Z,21.09
2017-02-28T02:03:43.241Z,21.13
2017-02-28T02:05:10.416Z,21.14
2017-02-28T02:06:24.180Z,21.22
2017-02-28T02:07:37.908Z,21.09
2017-02-28T02:08:52.304Z,21.16
2017-02-28T02:10:06.855Z,21.14
2017-02-28T02:11:21.339Z,21.12
2017-02-28T02:12:35.155Z,21.1
2017-02-28T02:13:49.641Z,21.12
2017-02-28T02:15:04.129Z,21.16
2017-02-28T02:16:18.581Z,21.09
2017-02-28T02:17:33.063Z,21.07
2017-02-28T02:18:47.556Z,21.14
2017-02-28T02:20:02.049Z,21.14
2017-02-28T02:21:16.581Z,21.13
2017-02-28T02:22:31.056Z,21.06
2017-02-28T02:23:45.503Z,21.13
2017-02-28T02:25:00.022Z,21.1
2017-02-28T02:26:14.600Z,21.1
2017-02-28T02:27:29.969Z,21.06
2017-02-28T02:28:44.414Z,21.07
2017-02-28T02:29:58.870Z,20.92
2017-02-28T02:31:12.697Z,20.89
2017-02-28T02:32:27.257Z,20.88
2017-02-28T02:33:41.075Z,20.91
2017-02-28T02:34:55.530Z,20.87
2017-02-28T02:36:09.986Z,20.79
2017-02-28T02:37:24.455Z,20.79
2017-02-28T02:38:38.931Z,20.82
2017-02-28T02:39:53.355Z,20.82
2017-02-28T02:41:07.838Z,20.89
2017-02-28T02:42:22.344Z,20.87
2017-02-28T02:43:36.272Z,20.87
2017-02-28T02:44:50.740Z,20.82
2017-02-28T02:46:05.212Z,20.82
2017-02-28T02:47:19.154Z,20.79
2017-02-28T02:48:31.765Z,20.8
2017-02-28T02:49:46.297Z,20.84
2017-02-28T02:51:00.765Z,20.82
2017-02-28T02:52:14.633Z,20.94
2017-02-28T02:53:28.446Z,20.92
2017-02-28T02:54:42.942Z,20.95
2017-02-28T02:55:57.441Z,20.92
2017-02-28T02:57:11.901Z,20.97
2017-02-28T02:58:25.713Z,21.07
2017-02-28T02:59:39.534Z,20.95
2017-02-28T03:00:53.326Z,20.95
2017-02-28T03:02:07.842Z,20.74
2017-02-28T03:03:22.315Z,20.66
2017-02-28T03:04:36.807Z,20.58
2017-02-28T03:05:51.266Z,20.66
2017-02-28T03:07:05.730Z,20.7
2017-02-28T03:08:20.187Z,20.64
2017-02-28T03:09:33.987Z,20.69
2017-02-28T03:10:47.820Z,20.66
2017-02-28T03:12:02.308Z,20.48
2017-02-28T03:13:16.743Z,20.58
2017-02-28T03:14:31.226Z,20.54
2017-02-28T03:15:45.702Z,20.62
2017-02-28T03:17:00.149Z,20.58
2017-02-28T03:18:14.604Z,20.66
2017-02-28T03:19:29.053Z,20.59
2017-02-28T03:20:42.897Z,20.7
2017-02-28T03:21:57.359Z,20.59
2017-02-28T03:23:11.827Z,20.59
2017-02-28T03:24:26.280Z,20.77
2017-02-28T03:25:40.742Z,20.74
2017-02-28T03:26:55.183Z,20.7
2017-02-28T03:28:09.631Z,20.59
2017-02-28T03:29:23.468Z,20.57
2017-02-28T03:30:37.943Z,20.66
2017-02-28T03:31:52.420Z,20.69
2017-02-28T03:33:06.921Z,20.64
2017-02-28T03:34:21.412Z,20.62
2017-02-28T03:35:35.887Z,20.66
2017-02-28T03:36:50.355Z,20.59
2017-02-28T03:38:04.813Z,20.52
2017-02-28T03:39:19.329Z,20.52
2017-02-28T03:40:33.800Z,20.61
2017-02-28T03:41:47.613Z,20.57
2017-02-28T03:43:02.080Z,20.64
2017-02-28T03:44:15.867Z,20.58
2017-02-28T03:45:29.051Z,20.62
2017-02-28T03:46:43.525Z,20.66
2017-02-28T03:47:57.325Z,20.62
2017-02-28T03:49:11.785Z,20.67
2017-02-28T03:50:25.575Z,20.67
2017-02-28T03:51:39.389Z,20.59
2017-02-28T03:52:53.845Z,20.61
2017-02-28T03:54:08.299Z,20.58
2017-02-28T03:55:22.763Z,20.66
2017-02-28T03:56:37.240Z,20.61
2017-02-28T03:57:51.708Z,20.61
2017-02-28T03:59:06.174Z,20.55
2017-02-28T04:00:20.649Z,20.5
2017-02-28T04:01:35.080Z,20.48
2017-02-28T04:02:49.529Z,20.52
2017-02-28T04:04:04.006Z,20.5
2017-02-28T04:05:18.492Z,20.55
2017-02-28T04:06:31.675Z,20.57
2017-02-28T04:07:46.123Z,20.48
2017-02-28T04:09:00.622Z,20.5
2017-02-28T04:10:15.098Z,20.39
2017-02-28T04:11:29.599Z,20.35
2017-02-28T04:12:43.437Z,20.36
2017-02-28T04:13:57.901Z,20.33
2017-02-28T04:15:12.409Z,20.31
2017-02-28T04:16:26.900Z,20.28
2017-02-28T04:17:40.735Z,20.41
2017-02-28T04:18:55.196Z,20.48
2017-02-28T04:20:08.977Z,20.47
2017-02-28T04:21:23.434Z,20.51
2017-02-28T04:22:37.875Z,20.41
2017-02-28T04:23:52.364Z,20.33
2017-02-28T04:25:06.815Z,20.41
2017-02-28T04:26:21.291Z,20.36
2017-02-28T04:27:35.750Z,20.42
2017-02-28T04:28:50.193Z,20.51
2017-02-28T04:30:04.696Z,20.51
2017-02-28T04:31:19.180Z,20.57
2017-02-28T04:32:33.624Z,20.55
2017-02-28T04:33:48.053Z,20.55
2017-02-28T04:35:01.913Z,20.55
2017-02-28T04:36:16.392Z,20.58
2017-02-28T04:37:30.879Z,20.47
2017-02-28T04:38:45.319Z,20.48
2017-02-28T04:39:59.796Z,20.47
2017-02-28T04:41:14.263Z,20.48
2017-02-28T04:42:28.703Z,20.48
2017-02-28T04:43:43.164Z,20.51
2017-02-28T04:44:57.631Z,20.42
2017-02-28T04:46:12.103Z,20.51
2017-02-28T04:47:26.553Z,20.51
2017-02-28T04:48:40.990Z,20.48
2017-02-28T04:49:55.504Z,20.54
2017-02-28T04:51:09.988Z,20.59
2017-02-28T04:52:24.490Z,20.48
2017-02-28T04:53:38.983Z,20.48
2017-02-28T04:54:53.432Z,20.43
2017-02-28T04:56:07.883Z,20.47
2017-02-28T04:57:21.698Z,20.39
2017-02-28T04:58:35.495Z,20.43
2017-02-28T04:59:49.943Z,20.31
2017-02-28T05:01:04.391Z,20.28
2017-02-28T05:02:18.840Z,20.29
2017-02-28T05:03:32.633Z,20.28
2017-02-28T05:04:46.441Z,20.38
2017-02-28T05:06:00.905Z,20.36
2017-02-28T05:07:15.354Z,20.33
2017-02-28T05:08:29.804Z,20.39
2017-02-28T05:09:44.260Z,20.38
2017-02-28T05:10:58.719Z,20.29
2017-02-28T05:12:13.172Z,20.28
2017-02-28T05:13:27.656Z,20.16
2017-02-28T05:14:42.108Z,20.21
2017-02-28T05:15:56.571Z,20.11
2017-02-28T05:17:09.733Z,20.13
2017-02-28T05:18:23.568Z,20.06
2017-02-28T05:19:38.011Z,20.06
2017-02-28T05:20:52.462Z,19.98
2017-02-28T05:22:06.295Z,19.98
2017-02-28T05:23:20.774Z,19.86
2017-02-28T05:24:35.227Z,19.87
2017-02-28T05:25:49.721Z,19.76
2017-02-28T05:27:03.519Z,19.69
2017-02-28T05:28:17.951Z,19.77
2017-02-28T05:29:31.774Z,19.71
2017-02-28T05:30:46.243Z,19.77
2017-02-28T05:32:00.700Z,19.83
2017-02-28T05:33:15.162Z,19.84
2017-02-28T05:34:29.015Z,19.87
2017-02-28T05:35:43.479Z,19.81
2017-02-28T05:36:57.933Z,19.83
2017-02-28T05:38:11.755Z,19.86
2017-02-28T05:39:26.200Z,19.84
2017-02-28T05:40:40.644Z,19.83
2017-02-28T05:41:54.448Z,19.81
2017-02-28T05:43:08.951Z,19.77
2017-02-28T05:44:23.442Z,19.77
2017-02-28T05:45:37.225Z,19.73
2017-02-28T05:46:51.667Z,19.74
2017-02-28T05:48:06.129Z,19.74
2017-02-28T05:49:19.930Z,19.76
2017-02-28T05:50:33.714Z,19.71
2017-02-28T05:51:48.191Z,19.77
2017-02-28T05:53:02.663Z,19.76
2017-02-28T05:54:17.136Z,19.73
2017-02-28T05:55:31.589Z,19.73
2017-02-28T05:56:45.382Z,19.62
2017-02-28T05:57:59.815Z,19.58
2017-02-28T05:59:13.611Z,19.51
2017-02-28T06:00:27.406Z,19.58
2017-02-28T06:01:41.863Z,19.58
2017-02-28T06:02:56.339Z,19.56
2017-02-28T06:04:10.788Z,19.63
2017-02-28T06:05:25.242Z,19.65
2017-02-28T06:06:39.687Z,19.66
2017-02-28T06:07:54.176Z,19.73
2017-02-28T06:09:08.657Z,19.78
2017-02-28T06:10:23.135Z,19.74
2017-02-28T06:11:37.568Z,19.74
2017-02-28T06:12:52.026Z,19.74
2017-02-28T06:14:06.500Z,19.76
2017-02-28T06:15:20.312Z,19.74
2017-02-28T06:16:34.758Z,19.77
2017-02-28T06:17:49.207Z,19.74
2017-02-28T06:19:03.689Z,19.74
2017-02-28T06:20:18.165Z,19.73
2017-02-28T06:21:32.632Z,19.77
2017-02-28T06:22:47.064Z,19.77
2017-02-28T06:24:01.576Z,19.8
2017-02-28T06:25:16.031Z,19.71
2017-02-28T06:26:29.846Z,19.73
2017-02-28T06:27:44.313Z,19.74
2017-02-28T06:28:58.754Z,19.78
2017-02-28T06:30:13.207Z,19.71
2017-02-28T06:31:27.023Z,19.73
2017-02-28T06:32:41.503Z,19.78
2017-02-28T06:33:55.951Z,19.8
2017-02-28T06:35:10.447Z,19.76
2017-02-28T06:36:24.257Z,19.8
2017-02-28T06:37:38.728Z,19.77
2017-02-28T06:38:52.553Z,19.76
2017-02-28T06:40:07.020Z,19.74
2017-02-28T06:41:21.461Z,19.8
2017-02-28T06:42:35.950Z,19.77
2017-02-28T06:43:50.445Z,19.71
2017-02-28T06:45:04.889Z,19.58
2017-02-28T06:46:18.743Z,19.59
2017-02-28T06:47:32.539Z,19.5
2017-02-28T06:48:46.383Z,19.56
2017-02-28T06:50:00.858Z,19.55
2017-02-28T06:51:15.313Z,19.41
2017-02-28T06:52:28.488Z,19.32
2017-02-28T06:53:42.906Z,19.37
2017-02-28T06:54:57.378Z,19.31
2017-02-28T06:56:11.865Z,19.32
2017-02-28T06:57:25.673Z,19.25
2017-02-28T06:58:40.160Z,19.26
2017-02-28T06:59:54.612Z,19.26
2017-02-28T07:01:09.063Z,19.21
2017-02-28T07:02:22.267Z,19.19
2017-02-28T07:03:36.712Z,19.07
2017-02-28T07:04:50.517Z,19.1
2017-02-28T07:06:05.002Z,19.11
2017-02-28T07:07:19.469Z,19.22
2017-02-28T07:08:33.311Z,19.16
2017-02-28T07:09:47.115Z,19.16
2017-02-28T07:11:01.556Z,19.14
2017-02-28T07:12:16.061Z,19.23
2017-02-28T07:13:30.500Z,19.19
2017-02-28T07:14:44.334Z,19.28
2017-02-28T07:15:58.786Z,19.25
2017-02-28T07:17:13.243Z,19.25
2017-02-28T07:18:27.028Z,19.25
2017-02-28T07:19:40.858Z,19.26
2017-02-28T07:20:55.366Z,19.23
2017-02-28T07:22:09.809Z,19.22
2017-02-28T07:23:24.266Z,19.21
2017-02-28T07:24:38.781Z,19.22
2017-02-28T07:25:53.283Z,19.21
2017-02-28T07:27:07.725Z,19.21
2017-02-28T07:28:21.517Z,19.23
2017-02-28T07:29:35.326Z,19.16
2017-02-28T07:30:49.839Z,19.16
2017-02-28T07:32:04.288Z,19.21
2017-02-28T07:33:18.781Z,19.29
2017-02-28T07:34:33.236Z,19.19
2017-02-28T07:35:47.042Z,19.25
2017-02-28T07:37:01.503Z,19.28
2017-02-28T07:38:15.980Z,19.31
2017-02-28T07:39:29.812Z,19.25
2017-02-28T07:40:44.276Z,19.23
2017-02-28T07:41:58.787Z,19.22
2017-02-28T07:43:13.247Z,19.25
2017-02-28T07:44:27.072Z,19.32
2017-02-28T07:45:40.879Z,19.32
2017-02-28T07:46:55.334Z,19.36
2017-02-28T07:48:09.805Z,19.33
2017-02-28T07:49:24.278Z,19.32
2017-02-28T07:50:38.732Z,19.37
2017-02-28T07:51:52.535Z,19.33
2017-02-28T07:53:06.965Z,19.31
2017-02-28T07:54:20.773Z,19.26
2017-02-28T07:55:35.263Z,19.23
2017-02-28T07:56:49.755Z,19.25
2017-02-28T07:58:04.230Z,19.21
2017-02-28T07:59:18.011Z,19.22
2017-02-28T08:00:32.449Z,19.16
2017-02-28T08:01:46.287Z,19.21
2017-02-28T08:03:00.769Z,19.25
2017-02-28T08:04:15.254Z,19.23
2017-02-28T08:05:29.065Z,19.23
2017-02-28T08:06:43.505Z,19.19
2017-02-28T08:07:57.958Z,19.22
2017-02-28T08:09:12.416Z,19.18
2017-02-28T08:10:26.931Z,19.16
2017-02-28T08:11:41.393Z,19.21
2017-02-28T08:12:55.856Z,19.21
2017-02-28T08:14:10.319Z,19.19
2017-02-28T08:15:24.772Z,19.22
2017-02-28T08:16:38.597Z,19.26
2017-02-28T08:17:52.386Z,19.29
2017-02-28T08:19:06.825Z,19.21
2017-02-28T08:20:21.305Z,19.31
2017-02-28T08:21:35.095Z,19.31
2017-02-28T08:22:48.910Z,19.31
2017-02-28T08:24:03.350Z,19.32
2017-02-28T08:25:17.794Z,19.28
2017-02-28T08:26:32.246Z,19.23
2017-02-28T08:27:45.436Z,19.23
2017-02-28T08:28:59.963Z,19.16
2017-02-28T08:30:14.437Z,19.16
2017-02-28T08:31:28.927Z,19.25
2017-02-28T08:32:43.382Z,19.14
2017-02-28T08:33:57.176Z,19.18
2017-02-28T08:35:11.638Z,19.23
2017-02-28T08:36:24.765Z,19.21
2017-02-28T08:37:38.601Z,19.18
2017-02-28T08:38:53.038Z,19.21
2017-02-28T08:40:07.495Z,19.23
2017-02-28T08:41:21.979Z,19.29
2017-02-28T08:42:36.402Z,19.21
2017-02-28T08:43:50.856Z,19.23
2017-02-28T08:45:04.665Z,19.22
2017-02-28T08:46:19.155Z,19.25
2017-02-28T08:47:32.311Z,19.31
2017-02-28T08:48:46.792Z,19.33
2017-02-28T08:50:01.265Z,19.36
2017-02-28T08:51:15.748Z,19.33
2017-02-28T08:52:30.182Z,19.4
2017-02-28T08:53:44.638Z,19.32
2017-02-28T08:54:59.055Z,19.44
2017-02-28T08:56:13.493Z,19.51
2017-02-28T08:57:27.965Z,19.51
2017-02-28T08:58:42.436Z,19.51
2017-02-28T08:59:56.899Z,19.5
2017-02-28T09:01:11.332Z,19.55
2017-02-28T09:02:25.783Z,19.59
2017-02-28T09:03:39.603Z,19.65
2017-02-28T09:04:52.754Z,19.59
2017-02-28T09:06:07.198Z,19.65
2017-02-28T09:07:21.618Z,19.65
2017-02-28T09:08:35.400Z,19.69
2017-02-28T09:09:49.852Z,19.77
2017-02-28T09:11:04.314Z,19.81
2017-02-28T09:12:18.787Z,19.92
2017-02-28T09:13:33.245Z,19.99
2017-02-28T09:14:47.084Z,19.94
2017-02-28T09:16:01.021Z,20.1
2017-02-28T09:17:15.475Z,20.18
2017-02-28T09:18:29.920Z,20.24
2017-02-28T09:19:44.377Z,20.5
2017-02-28T09:20:58.212Z,20.43
2017-02-28T09:22:12.653Z,20.55
2017-02-28T09:23:27.102Z,20.64
2017-02-28T09:24:41.560Z,20.84
2017-02-28T09:25:56.039Z,20.89
2017-02-28T09:27:09.847Z,21.19
2017-02-28T09:28:24.301Z,21.14
2017-02-28T09:29:38.765Z,21.28
2017-02-28T09:30:53.222Z,21.32
2017-02-28T09:32:07.660Z,21.37
2017-02-28T09:33:21.489Z,21.37
2017-02-28T09:34:35.331Z,21.42
2017-02-28T09:35:49.147Z,21.37
2017-02-28T09:37:03.581Z,21.52
2017-02-28T09:38:17.380Z,21.52
2017-02-28T09:39:31.180Z,21.54
2017-02-28T09:40:45.636Z,21.58
2017-02-28T09:42:00.099Z,21.62
2017-02-28T09:43:14.576Z,21.74
2017-02-28T09:44:27.772Z,21.9
2017-02-28T09:45:42.260Z,22.03
2017-02-28T09:46:55.455Z,22.07
2017-02-28T09:48:09.942Z,22.17
2017-02-28T09:49:24.414Z,22.12
2017-02-28T09:50:38.214Z,22.12
2017-02-28T09:51:52.027Z,22.15
2017-02-28T09:53:06.476Z,22.28
2017-02-28T09:54:20.292Z,22.22
2017-02-28T09:55:34.740Z,22.25
2017-02-28T09:56:49.192Z,22.05
2017-02-28T09:58:02.992Z,22.12
2017-02-28T09:59:17.478Z,22.21
2017-02-28T10:00:31.945Z,22.33
2017-02-28T10:01:45.856Z,22.65
2017-02-28T10:03:00.307Z,22.8
2017-02-28T10:04:14.768Z,22.7
2017-02-28T10:05:28.613Z,22.43
2017-02-28T10:06:42.427Z,22.4
2017-02-28T10:07:56.923Z,22.61
2017-02-28T10:09:11.374Z,22.97
2017-02-28T10:10:25.849Z,23.38
2017-02-28T10:11:40.322Z,23.58
2017-02-28T10:12:54.791Z,23.84
2017-02-28T10:14:09.254Z,23.78
2017-02-28T10:15:23.704Z,23.54
2017-02-28T10:16:38.143Z,23.57
2017-02-28T10:17:52.636Z,23.51
2017-02-28T10:19:07.082Z,23.58
2017-02-28T10:20:20.874Z,23.93
2017-02-28T10:21:35.389Z,24.15
2017-02-28T10:22:49.238Z,24.32
2017-02-28T10:24:03.717Z,24.06
2017-02-28T10:25:18.193Z,23.84
2017-02-28T10:26:32.644Z,23.54
2017-02-28T10:27:46.451Z,23.57
2017-02-28T10:29:00.908Z,23.43
2017-02-28T10:30:15.363Z,23.31
2017-02-28T10:31:29.833Z,23.85
2017-02-28T10:32:44.311Z,24.15
2017-02-28T10:33:58.122Z,24.25
2017-02-28T10:35:12.585Z,24.21
2017-02-28T10:36:27.025Z,24.21
2017-02-28T10:37:41.481Z,24.3
2017-02-28T10:38:55.360Z,23.91
2017-02-28T10:40:09.201Z,23.87
2017-02-28T10:41:23.664Z,23.85
2017-02-28T10:42:38.147Z,23.54
2017-02-28T10:43:52.603Z,23.39
2017-02-28T10:45:05.766Z,23.58
2017-02-28T10:46:20.232Z,23.6
2017-02-28T10:47:34.684Z,23.78
2017-02-28T10:48:49.182Z,23.73
2017-02-28T10:50:03.638Z,23.84
2017-02-28T10:51:17.430Z,23.75
2017-02-28T10:52:31.887Z,24.12
2017-02-28T10:53:46.331Z,24.02
2017-02-28T10:55:00.763Z,24.21
2017-02-28T10:56:15.248Z,24.2
2017-02-28T10:57:29.700Z,24.09
2017-02-28T10:58:44.158Z,24.16
2017-02-28T10:59:57.974Z,24.12
2017-02-28T11:01:12.433Z,24.32
2017-02-28T11:02:25.618Z,24.57
2017-02-28T11:03:39.447Z,24.55
2017-02-28T11:04:52.606Z,24.88
2017-02-28T11:06:07.093Z,25.08
2017-02-28T11:07:21.839Z,25.38
2017-02-28T11:08:36.305Z,25.08
2017-02-28T11:09:50.149Z,24.93
2017-02-28T11:11:04.614Z,24.84
2017-02-28T11:12:19.108Z,24.67
2017-02-28T11:13:33.590Z,24.57
2017-02-28T11:14:47.404Z,24.62
2017-02-28T11:16:01.217Z,24.91
2017-02-28T11:17:15.652Z,25.15
2017-02-28T11:18:29.488Z,25.5
2017-02-28T11:19:43.962Z,25.7
2017-02-28T11:20:58.414Z,25.79
2017-02-28T11:22:12.870Z,25.75
2017-02-28T11:23:26.730Z,26.23
2017-02-28T11:24:41.228Z,26.51
2017-02-28T11:25:55.688Z,26.58
2017-02-28T11:27:09.520Z,26.63
2017-02-28T11:28:23.336Z,26.3
2017-02-28T11:29:37.815Z,25.99
2017-02-28T11:30:52.282Z,26.45
2017-02-28T11:32:06.754Z,26.13
2017-02-28T11:33:20.560Z,25.79
2017-02-28T11:34:35.013Z,25.82
2017-02-28T11:35:49.480Z,25.97
2017-02-28T11:37:03.925Z,25.9
2017-02-28T11:38:18.424Z,25.6
2017-02-28T11:39:32.929Z,25.62
2017-02-28T11:40:47.393Z,25.77
2017-02-28T11:42:01.215Z,26.29
2017-02-28T11:43:15.684Z,26.58
2017-02-28T11:44:29.585Z,26.85
2017-02-28T11:45:42.766Z,26.91
2017-02-28T11:46:57.253Z,26.94
2017-02-28T11:48:11.706Z,26.91
2017-02-28T11:49:25.500Z,26.62
2017-02-28T11:50:39.947Z,26.33
2017-02-28T11:51:54.395Z,26.26
2017-02-28T11:53:08.880Z,26.06
2017-02-28T11:54:23.353Z,25.85
2017-02-28T11:55:37.197Z,25.67
2017-02-28T11:56:51.676Z,25.7
2017-02-28T11:58:06.145Z,26.15
2017-02-28T11:59:20.628Z,26.66
2017-02-28T12:00:35.082Z,26.95
2017-02-28T12:01:49.596Z,27.24
2017-02-28T12:03:04.071Z,26.73
2017-02-28T12:04:18.509Z,26.6
2017-02-28T12:05:32.963Z,26.54
2017-02-28T12:06:47.426Z,26.73
2017-02-28T12:08:01.277Z,27.03
2017-02-28T12:09:15.103Z,27.07
2017-02-28T12:10:29.604Z,26.66
2017-02-28T12:11:44.090Z,26.77
2017-02-28T12:12:57.889Z,27.39
2017-02-28T12:14:11.755Z,27.25
2017-02-28T12:15:26.210Z,27.44
2017-02-28T12:16:40.058Z,27.34
2017-02-28T12:17:53.855Z,27.27
2017-02-28T12:19:08.327Z,27.22
2017-02-28T12:20:22.805Z,27.27
2017-02-28T12:21:37.293Z,27.49
2017-02-28T12:22:51.771Z,27.67
2017-02-28T12:24:06.258Z,27.46
2017-02-28T12:25:19.411Z,26.88
2017-02-28T12:26:33.876Z,27.31
2017-02-28T12:27:48.360Z,27.27
2017-02-28T12:29:02.809Z,27.25
2017-02-28T12:30:16.645Z,27.36
2017-02-28T12:31:31.113Z,26.91
2017-02-28T12:32:45.580Z,26.6
2017-02-28T12:34:00.088Z,26.44
2017-02-28T12:35:14.560Z,26.44
2017-02-28T12:36:28.999Z,26.48
2017-02-28T12:37:43.469Z,26.39
2017-02-28T12:38:57.923Z,26.84
2017-02-28T12:40:12.400Z,26.99
2017-02-28T12:41:26.858Z,27.31
2017-02-28T12:42:41.323Z,27.4
2017-02-28T12:43:55.772Z,27.22
2017-02-28T12:45:10.238Z,26.95
2017-02-28T12:46:24.065Z,26.69
2017-02-28T12:47:38.515Z,26.57
2017-02-28T12:48:52.988Z,26.26
2017-02-28T12:50:07.494Z,26.43
2017-02-28T12:51:21.309Z,26.66
2017-02-28T12:52:35.765Z,26.57
2017-02-28T12:53:50.243Z,26.33
2017-02-28T12:55:04.707Z,25.82
2017-02-28T12:56:18.517Z,25.82
2017-02-28T12:57:32.968Z,25.88
2017-02-28T12:58:46.769Z,26.15
2017-02-28T13:00:01.242Z,26.26
2017-02-28T13:01:15.081Z,26.2
2017-02-28T13:02:28.866Z,26.28
2017-02-28T13:03:43.319Z,25.95
2017-02-28T13:04:57.128Z,25.8
2017-02-28T13:06:11.616Z,25.97
2017-02-28T13:07:26.077Z,26.07
2017-02-28T13:08:40.516Z,26.12
2017-02-28T13:09:54.338Z,26.2
2017-02-28T13:11:08.798Z,26.01
2017-02-28T13:12:23.272Z,26.06
2017-02-28T13:13:37.779Z,25.99
2017-02-28T13:14:52.262Z,25.87
2017-02-28T13:16:06.720Z,26.32
2017-02-28T13:17:20.524Z,26.33
2017-02-28T13:18:34.339Z,26.58
2017-02-28T13:19:48.182Z,26.87
2017-02-28T13:21:02.629Z,26.66
2017-02-28T13:22:17.089Z,27.07
2017-02-28T13:23:31.546Z,27.1
2017-02-28T13:24:46.004Z,26.92
2017-02-28T13:25:59.844Z,27.1
2017-02-28T13:27:13.649Z,27.49
2017-02-28T13:28:28.096Z,27.46
2017-02-28T13:29:42.571Z,27.39
2017-02-28T13:30:57.037Z,27.39
2017-02-28T13:32:11.494Z,27.14
2017-02-28T13:33:25.329Z,27.24
2017-02-28T13:34:39.139Z,27.49
2017-02-28T13:35:53.643Z,27.77
2017-02-28T13:37:08.098Z,27.81
2017-02-28T13:38:22.565Z,27.93
2017-02-28T13:39:37.028Z,27.79
2017-02-28T13:40:51.480Z,27.63
2017-02-28T13:42:05.320Z,27.44
2017-02-28T13:43:19.796Z,27.4
2017-02-28T13:44:33.622Z,27.5
2017-02-28T13:45:48.086Z,27.79
2017-02-28T13:47:01.950Z,28.21
2017-02-28T13:48:16.433Z,28.27
2017-02-28T13:49:30.873Z,28
2017-02-28T13:50:44.694Z,27.41
2017-02-28T13:51:59.151Z,26.87
2017-02-28T13:53:12.956Z,26.87
2017-02-28T13:54:26.767Z,26.89
2017-02-28T13:55:41.260Z,27.14
2017-02-28T13:56:55.745Z,27.47
2017-02-28T13:58:10.194Z,27.44
2017-02-28T13:59:24.016Z,27.25
2017-02-28T14:00:38.478Z,27.12
2017-02-28T14:01:52.923Z,27.03
2017-02-28T14:03:07.384Z,27.47
2017-02-28T14:04:21.851Z,27.87
2017-02-28T14:05:35.725Z,28.19
2017-02-28T14:06:50.206Z,28.15
2017-02-28T14:08:04.674Z,27.88
2017-02-28T14:09:19.124Z,27.43
2017-02-28T14:10:33.572Z,27.09
2017-02-28T14:11:48.026Z,27.14
2017-02-28T14:13:02.492Z,26.99
2017-02-28T14:14:16.976Z,26.85
2017-02-28T14:15:30.824Z,26.7
2017-02-28T14:16:45.284Z,26.66
2017-02-28T14:17:59.767Z,26.65
2017-02-28T14:19:13.565Z,26.87
2017-02-28T14:20:28.028Z,27.22
2017-02-28T14:21:42.545Z,27.18
2017-02-28T14:22:56.406Z,27.04
2017-02-28T14:24:10.881Z,26.94
2017-02-28T14:25:25.358Z,26.84
2017-02-28T14:26:39.834Z,27.07
2017-02-28T14:27:54.366Z,27.54
2017-02-28T14:29:08.184Z,27.88
2017-02-28T14:30:22.634Z,28.14
2017-02-28T14:31:36.473Z,28.39
2017-02-28T14:32:50.944Z,28.73
2017-02-28T14:34:04.753Z,29.12
2017-02-28T14:35:19.232Z,29.23
2017-02-28T14:36:33.757Z,29.48
2017-02-28T14:37:48.227Z,29.33
2017-02-28T14:39:02.694Z,28.98
2017-02-28T14:40:17.139Z,28.66
2017-02-28T14:41:30.962Z,28.18
2017-02-28T14:42:44.778Z,28.12
2017-02-28T14:43:59.245Z,28.39
2017-02-28T14:45:13.105Z,29.04
2017-02-28T14:46:27.611Z,29.09
2017-02-28T14:47:42.053Z,29.05
2017-02-28T14:48:55.872Z,29.11
2017-02-28T14:50:10.348Z,28.64
2017-02-28T14:51:24.200Z,28.34
2017-02-28T14:52:38.653Z,28.25
2017-02-28T14:53:53.092Z,27.96
2017-02-28T14:55:06.952Z,27.92
2017-02-28T14:56:21.458Z,27.82
2017-02-28T14:57:35.906Z,27.97
2017-02-28T14:58:50.398Z,28.55
2017-02-28T15:00:04.865Z,28.73
2017-02-28T15:01:18.683Z,29.12
2017-02-28T15:02:33.148Z,29.58
2017-02-28T15:03:47.609Z,29.23
2017-02-28T15:05:02.077Z,29.33
2017-02-28T15:06:16.541Z,29.37
2017-02-28T15:07:30.337Z,28.77
2017-02-28T15:08:44.818Z,28.66
2017-02-28T15:09:59.288Z,28.55
2017-02-28T15:11:13.758Z,28.8
2017-02-28T15:12:28.262Z,28.7
2017-02-28T15:13:42.808Z,28.93
2017-02-28T15:14:57.282Z,28.96
2017-02-28T15:16:11.736Z,28.9
2017-02-28T15:17:25.548Z,29.04
2017-02-28T15:18:39.421Z,29.26
2017-02-28T15:19:53.887Z,29.6
2017-02-28T15:21:07.780Z,29.78
2017-02-28T15:22:22.241Z,29.51
2017-02-28T15:23:36.673Z,29.45
2017-02-28T15:24:50.517Z,29.16
2017-02-28T15:26:04.974Z,29.45
2017-02-28T15:27:19.453Z,29.89
2017-02-28T15:28:33.920Z,30.16
2017-02-28T15:29:48.383Z,30.51
2017-02-28T15:31:02.850Z,30.07
2017-02-28T15:32:16.685Z,29.73
2017-02-28T15:33:31.154Z,29.42
2017-02-28T15:34:45.654Z,29.19
2017-02-28T15:35:59.498Z,28.83
2017-02-28T15:37:13.957Z,28.89
2017-02-28T15:38:28.405Z,29.34
2017-02-28T15:39:42.254Z,29.57
2017-02-28T15:40:56.075Z,29.43
2017-02-28T15:42:10.571Z,29.58
2017-02-28T15:43:25.045Z,30.22
2017-02-28T15:44:39.519Z,30.05
2017-02-28T15:45:53.992Z,30.13
2017-02-28T15:47:08.438Z,30.43
2017-02-28T15:48:22.916Z,30.76
2017-02-28T15:49:37.421Z,30.94
2017-02-28T15:50:51.867Z,30.72
2017-02-28T15:52:06.343Z,30.02
2017-02-28T15:53:20.807Z,29.65
2017-02-28T15:54:35.282Z,29.39
2017-02-28T15:55:49.125Z,29.04
2017-02-28T15:57:03.591Z,28.73
2017-02-28T15:58:17.452Z,28.49
2017-02-28T15:59:31.932Z,28.34